Back to Top

Language: 

My Weather Underground Personal Weather Station Historical Data with Graphs...

Delerius Weather Station Historical Data
Daily Summary for December 5, 2017 Units:  Both    English   Metric
« Previous Day
Next Day »
Daily Weekly Monthly Yearly Custom
  High: Low: Average:
Temperature: 47.5 °F /  8.6 °C 44.6 °F /  7 °C 46.1 °F /  7.8 °C
Dew Point: 43.2 °F /  6.2 °C 38.7 °F /  3.7 °C 40.9 °F /  4.9 °C
Humidity: 86 % 77 % 82 %
Wind Speed: 17.0 mph /  27.4 km/h - 9.5 mph /  15.3 km/h
Wind Gust: 29.0 mph /  46.7 km/h - -
Wind:- - West
Pressure: 30.52 in /  1033.4 hPa 30.37 in /  1028.3 hPa -
Precipitation: 0.00 in /  0 mm    
Historical Graphs
 
 
Tabular Data for December 5, 2017
Time Temperature Dew Point Pressure Wind Wind Speed Wind Gust Humidity Rainfall Rate (Hourly) solar Conditions
00:00 46.9 °F /  8.3 °C 42.7 °F /  5.9 °C 30.52 in /  1033.4 hPa West 7.0 mph /  11.3 km/h 11.0 mph /  17.7 km/h 85 % 0.00 in /  0 mm 0 W/m2
00:05 46.9 °F /  8.3 °C 42.7 °F /  5.9 °C 30.52 in /  1033.4 hPa West 6.0 mph /  9.7 km/h 9.0 mph /  14.5 km/h 85 % 0.00 in /  0 mm 0 W/m2
00:10 47.1 °F /  8.4 °C 42.8 °F /  6 °C 30.52 in /  1033.4 hPa West 6.0 mph /  9.7 km/h 9.0 mph /  14.5 km/h 85 % 0.00 in /  0 mm 0 W/m2
00:15 47.1 °F /  8.4 °C 42.8 °F /  6 °C 30.52 in /  1033.4 hPa West 7.0 mph /  11.3 km/h 11.0 mph /  17.7 km/h 85 % 0.00 in /  0 mm 0 W/m2
00:20 47.1 °F /  8.4 °C 42.8 °F /  6 °C 30.51 in /  1033.1 hPa West 8.0 mph /  12.9 km/h 13.0 mph /  20.9 km/h 85 % 0.00 in /  0 mm 0 W/m2
00:25 47.1 °F /  8.4 °C 42.8 °F /  6 °C 30.51 in /  1033.1 hPa WNW 10.0 mph /  16.1 km/h 14.0 mph /  22.5 km/h 85 % 0.00 in /  0 mm 0 W/m2
00:30 47.3 °F /  8.5 °C 43.0 °F /  6.1 °C 30.51 in /  1033.1 hPa WNW 10.0 mph /  16.1 km/h 16.0 mph /  25.7 km/h 85 % 0.00 in /  0 mm 0 W/m2
00:35 47.5 °F /  8.6 °C 43.2 °F /  6.2 °C 30.51 in /  1033.1 hPa WNW 8.0 mph /  12.9 km/h 13.0 mph /  20.9 km/h 85 % 0.00 in /  0 mm 0 W/m2
00:40 47.5 °F /  8.6 °C 42.9 °F /  6.1 °C 30.51 in /  1033.1 hPa WNW 10.0 mph /  16.1 km/h 16.0 mph /  25.7 km/h 84 % 0.00 in /  0 mm 0 W/m2
00:45 47.5 °F /  8.6 °C 42.9 °F /  6.1 °C 30.51 in /  1033.1 hPa WNW 11.0 mph /  17.7 km/h 16.0 mph /  25.7 km/h 84 % 0.00 in /  0 mm 0 W/m2
00:50 47.3 °F /  8.5 °C 42.7 °F /  5.9 °C 30.50 in /  1032.7 hPa WNW 10.0 mph /  16.1 km/h 15.0 mph /  24.1 km/h 84 % 0.00 in /  0 mm 0 W/m2
00:55 47.3 °F /  8.5 °C 42.7 °F /  5.9 °C 30.50 in /  1032.7 hPa WNW 11.0 mph /  17.7 km/h 18.0 mph /  29 km/h 84 % 0.00 in /  0 mm 0 W/m2
01:00 47.3 °F /  8.5 °C 43.0 °F /  6.1 °C 30.50 in /  1032.7 hPa WNW 9.0 mph /  14.5 km/h 14.0 mph /  22.5 km/h 85 % 0.00 in /  0 mm 0 W/m2
01:05 47.1 °F /  8.4 °C 42.8 °F /  6 °C 30.50 in /  1032.7 hPa WNW 10.0 mph /  16.1 km/h 14.0 mph /  22.5 km/h 85 % 0.00 in /  0 mm 0 W/m2
01:10 47.1 °F /  8.4 °C 42.5 °F /  5.8 °C 30.50 in /  1032.7 hPa West 9.0 mph /  14.5 km/h 15.0 mph /  24.1 km/h 84 % 0.00 in /  0 mm 0 W/m2
01:15 47.1 °F /  8.4 °C 42.5 °F /  5.8 °C 30.51 in /  1033.1 hPa West 7.0 mph /  11.3 km/h 11.0 mph /  17.7 km/h 84 % 0.00 in /  0 mm 0 W/m2
01:20 47.1 °F /  8.4 °C 42.8 °F /  6 °C 30.51 in /  1033.1 hPa West 7.0 mph /  11.3 km/h 11.0 mph /  17.7 km/h 85 % 0.00 in /  0 mm 0 W/m2
01:25 47.1 °F /  8.4 °C 42.8 °F /  6 °C 30.50 in /  1032.7 hPa West 7.0 mph /  11.3 km/h 13.0 mph /  20.9 km/h 85 % 0.00 in /  0 mm 0 W/m2
01:30 47.1 °F /  8.4 °C 42.8 °F /  6 °C 30.50 in /  1032.7 hPa West 8.0 mph /  12.9 km/h 14.0 mph /  22.5 km/h 85 % 0.00 in /  0 mm 0 W/m2
01:35 47.1 °F /  8.4 °C 42.8 °F /  6 °C 30.50 in /  1032.7 hPa West 8.0 mph /  12.9 km/h 12.0 mph /  19.3 km/h 85 % 0.00 in /  0 mm 0 W/m2
01:40 46.9 °F /  8.3 °C 42.7 °F /  5.9 °C 30.50 in /  1032.7 hPa West 9.0 mph /  14.5 km/h 13.0 mph /  20.9 km/h 85 % 0.00 in /  0 mm 0 W/m2
01:45 47.1 °F /  8.4 °C 42.8 °F /  6 °C 30.50 in /  1032.7 hPa West 10.0 mph /  16.1 km/h 18.0 mph /  29 km/h 85 % 0.00 in /  0 mm 0 W/m2
01:50 47.1 °F /  8.4 °C 42.8 °F /  6 °C 30.50 in /  1032.7 hPa West 8.0 mph /  12.9 km/h 13.0 mph /  20.9 km/h 85 % 0.00 in /  0 mm 0 W/m2
01:55 47.1 °F /  8.4 °C 42.8 °F /  6 °C 30.51 in /  1033.1 hPa West 8.0 mph /  12.9 km/h 12.0 mph /  19.3 km/h 85 % 0.00 in /  0 mm 0 W/m2
02:00 47.1 °F /  8.4 °C 42.8 °F /  6 °C 30.51 in /  1033.1 hPa WNW 10.0 mph /  16.1 km/h 16.0 mph /  25.7 km/h 85 % 0.00 in /  0 mm 0 W/m2
02:05 47.1 °F /  8.4 °C 42.8 °F /  6 °C 30.50 in /  1032.7 hPa WNW 9.0 mph /  14.5 km/h 15.0 mph /  24.1 km/h 85 % 0.00 in /  0 mm 0 W/m2
02:10 47.1 °F /  8.4 °C 42.8 °F /  6 °C 30.50 in /  1032.7 hPa WNW 11.0 mph /  17.7 km/h 15.0 mph /  24.1 km/h 85 % 0.00 in /  0 mm 0 W/m2
02:15 47.1 °F /  8.4 °C 42.8 °F /  6 °C 30.50 in /  1032.7 hPa WNW 9.0 mph /  14.5 km/h 18.0 mph /  29 km/h 85 % 0.00 in /  0 mm 0 W/m2
02:16 47.1 °F /  8.4 °C 42.8 °F /  6 °C 30.50 in /  1032.7 hPa WNW 9.0 mph /  14.5 km/h 12.0 mph /  19.3 km/h 85 % 0.00 in /  0 mm 0 W/m2
02:21 47.1 °F /  8.4 °C 43.1 °F /  6.2 °C 30.50 in /  1032.7 hPa WNW 12.0 mph /  19.3 km/h 20.0 mph /  32.2 km/h 86 % 0.00 in /  0 mm 0 W/m2
02:26 47.1 °F /  8.4 °C 43.1 °F /  6.2 °C 30.50 in /  1032.7 hPa West 9.0 mph /  14.5 km/h 14.0 mph /  22.5 km/h 86 % 0.00 in /  0 mm 0 W/m2
02:31 47.1 °F /  8.4 °C 43.1 °F /  6.2 °C 30.50 in /  1032.7 hPa West 10.0 mph /  16.1 km/h 15.0 mph /  24.1 km/h 86 % 0.00 in /  0 mm 0 W/m2
02:36 46.9 °F /  8.3 °C 43.0 °F /  6.1 °C 30.50 in /  1032.7 hPa WNW 8.0 mph /  12.9 km/h 12.0 mph /  19.3 km/h 86 % 0.00 in /  0 mm 0 W/m2
02:41 46.9 °F /  8.3 °C 43.0 °F /  6.1 °C 30.50 in /  1032.7 hPa WNW 9.0 mph /  14.5 km/h 13.0 mph /  20.9 km/h 86 % 0.00 in /  0 mm 0 W/m2
02:46 46.9 °F /  8.3 °C 43.0 °F /  6.1 °C 30.50 in /  1032.7 hPa WNW 10.0 mph /  16.1 km/h 15.0 mph /  24.1 km/h 86 % 0.00 in /  0 mm 0 W/m2
02:51 46.8 °F /  8.2 °C 42.8 °F /  6 °C 30.50 in /  1032.7 hPa WNW 13.0 mph /  20.9 km/h 19.0 mph /  30.6 km/h 86 % 0.00 in /  0 mm 0 W/m2
02:56 46.9 °F /  8.3 °C 43.0 °F /  6.1 °C 30.50 in /  1032.7 hPa West 11.0 mph /  17.7 km/h 16.0 mph /  25.7 km/h 86 % 0.00 in /  0 mm 0 W/m2
03:01 46.9 °F /  8.3 °C 42.7 °F /  5.9 °C 30.50 in /  1032.7 hPa West 11.0 mph /  17.7 km/h 18.0 mph /  29 km/h 85 % 0.00 in /  0 mm 0 W/m2
03:06 46.9 °F /  8.3 °C 42.7 °F /  5.9 °C 30.50 in /  1032.7 hPa WNW 10.0 mph /  16.1 km/h 16.0 mph /  25.7 km/h 85 % 0.00 in /  0 mm 0 W/m2
03:11 46.9 °F /  8.3 °C 42.7 °F /  5.9 °C 30.50 in /  1032.7 hPa WNW 7.0 mph /  11.3 km/h 13.0 mph /  20.9 km/h 85 % 0.00 in /  0 mm 0 W/m2
03:16 46.9 °F /  8.3 °C 42.7 °F /  5.9 °C 30.50 in /  1032.7 hPa WNW 8.0 mph /  12.9 km/h 11.0 mph /  17.7 km/h 85 % 0.00 in /  0 mm 0 W/m2
03:21 46.9 °F /  8.3 °C 42.7 °F /  5.9 °C 30.50 in /  1032.7 hPa WNW 11.0 mph /  17.7 km/h 19.0 mph /  30.6 km/h 85 % 0.00 in /  0 mm 0 W/m2
03:26 46.9 °F /  8.3 °C 42.7 °F /  5.9 °C 30.50 in /  1032.7 hPa West 10.0 mph /  16.1 km/h 19.0 mph /  30.6 km/h 85 % 0.00 in /  0 mm 0 W/m2
03:31 46.9 °F /  8.3 °C 42.7 °F /  5.9 °C 30.50 in /  1032.7 hPa WNW 10.0 mph /  16.1 km/h 18.0 mph /  29 km/h 85 % 0.00 in /  0 mm 0 W/m2
03:36 46.9 °F /  8.3 °C 43.0 °F /  6.1 °C 30.50 in /  1032.7 hPa WNW 9.0 mph /  14.5 km/h 14.0 mph /  22.5 km/h 86 % 0.00 in /  0 mm 0 W/m2
03:41 46.8 °F /  8.2 °C 42.8 °F /  6 °C 30.50 in /  1032.7 hPa WNW 10.0 mph /  16.1 km/h 15.0 mph /  24.1 km/h 86 % 0.00 in /  0 mm 0 W/m2
03:46 46.8 °F /  8.2 °C 42.5 °F /  5.8 °C 30.50 in /  1032.7 hPa WNW 14.0 mph /  22.5 km/h 20.0 mph /  32.2 km/h 85 % 0.00 in /  0 mm 0 W/m2
03:51 46.8 °F /  8.2 °C 42.5 °F /  5.8 °C 30.50 in /  1032.7 hPa WNW 11.0 mph /  17.7 km/h 16.0 mph /  25.7 km/h 85 % 0.00 in /  0 mm 0 W/m2
03:56 46.6 °F /  8.1 °C 42.0 °F /  5.6 °C 30.50 in /  1032.7 hPa WNW 10.0 mph /  16.1 km/h 19.0 mph /  30.6 km/h 84 % 0.00 in /  0 mm 0 W/m2
04:01 46.6 °F /  8.1 °C 42.0 °F /  5.6 °C 30.50 in /  1032.7 hPa WNW 9.0 mph /  14.5 km/h 13.0 mph /  20.9 km/h 84 % 0.00 in /  0 mm 0 W/m2
04:06 46.6 °F /  8.1 °C 42.0 °F /  5.6 °C 30.50 in /  1032.7 hPa WNW 9.0 mph /  14.5 km/h 14.0 mph /  22.5 km/h 84 % 0.00 in /  0 mm 0 W/m2
04:11 46.6 °F /  8.1 °C 42.0 °F /  5.6 °C 30.50 in /  1032.7 hPa WNW 13.0 mph /  20.9 km/h 19.0 mph /  30.6 km/h 84 % 0.00 in /  0 mm 0 W/m2
04:16 46.6 °F /  8.1 °C 42.0 °F /  5.6 °C 30.50 in /  1032.7 hPa WNW 10.0 mph /  16.1 km/h 15.0 mph /  24.1 km/h 84 % 0.00 in /  0 mm 0 W/m2
04:21 46.6 °F /  8.1 °C 42.0 °F /  5.6 °C 30.50 in /  1032.7 hPa WNW 10.0 mph /  16.1 km/h 15.0 mph /  24.1 km/h 84 % 0.00 in /  0 mm 0 W/m2
04:26 46.6 °F /  8.1 °C 42.0 °F /  5.6 °C 30.50 in /  1032.7 hPa WNW 10.0 mph /  16.1 km/h 16.0 mph /  25.7 km/h 84 % 0.00 in /  0 mm 0 W/m2
04:31 46.6 °F /  8.1 °C 42.0 °F /  5.6 °C 30.51 in /  1033.1 hPa West 10.0 mph /  16.1 km/h 16.0 mph /  25.7 km/h 84 % 0.00 in /  0 mm 0 W/m2
04:36 46.6 °F /  8.1 °C 42.0 °F /  5.6 °C 30.50 in /  1032.7 hPa West 10.0 mph /  16.1 km/h 20.0 mph /  32.2 km/h 84 % 0.00 in /  0 mm 0 W/m2
04:41 46.6 °F /  8.1 °C 42.0 °F /  5.6 °C 30.51 in /  1033.1 hPa West 11.0 mph /  17.7 km/h 19.0 mph /  30.6 km/h 84 % 0.00 in /  0 mm 0 W/m2
04:46 46.4 °F /  8 °C 41.8 °F /  5.4 °C 30.51 in /  1033.1 hPa West 9.0 mph /  14.5 km/h 14.0 mph /  22.5 km/h 84 % 0.00 in /  0 mm 0 W/m2
04:51 46.4 °F /  8 °C 41.5 °F /  5.3 °C 30.51 in /  1033.1 hPa West 10.0 mph /  16.1 km/h 15.0 mph /  24.1 km/h 83 % 0.00 in /  0 mm 0 W/m2
04:56 46.4 °F /  8 °C 41.5 °F /  5.3 °C 30.51 in /  1033.1 hPa WNW 9.0 mph /  14.5 km/h 13.0 mph /  20.9 km/h 83 % 0.00 in /  0 mm 0 W/m2
05:01 46.4 °F /  8 °C 41.5 °F /  5.3 °C 30.51 in /  1033.1 hPa West 10.0 mph /  16.1 km/h 14.0 mph /  22.5 km/h 83 % 0.00 in /  0 mm 0 W/m2
05:02 46.4 °F /  8 °C 41.8 °F /  5.4 °C 30.51 in /  1033.1 hPa West 10.0 mph /  16.1 km/h 14.0 mph /  22.5 km/h 84 % 0.00 in /  0 mm 0 W/m2
05:07 46.4 °F /  8 °C 41.8 °F /  5.4 °C 30.50 in /  1032.7 hPa West 8.0 mph /  12.9 km/h 12.0 mph /  19.3 km/h 84 % 0.00 in /  0 mm 0 W/m2
05:12 46.4 °F /  8 °C 41.8 °F /  5.4 °C 30.50 in /  1032.7 hPa WNW 9.0 mph /  14.5 km/h 14.0 mph /  22.5 km/h 84 % 0.00 in /  0 mm 0 W/m2
05:17 46.4 °F /  8 °C 41.8 °F /  5.4 °C 30.50 in /  1032.7 hPa WNW 8.0 mph /  12.9 km/h 15.0 mph /  24.1 km/h 84 % 0.00 in /  0 mm 0 W/m2
05:22 46.2 °F /  7.9 °C 41.7 °F /  5.4 °C 30.50 in /  1032.7 hPa WNW 9.0 mph /  14.5 km/h 13.0 mph /  20.9 km/h 84 % 0.00 in /  0 mm 0 W/m2
05:27 46.2 °F /  7.9 °C 41.3 °F /  5.2 °C 30.50 in /  1032.7 hPa WNW 8.0 mph /  12.9 km/h 14.0 mph /  22.5 km/h 83 % 0.00 in /  0 mm 0 W/m2
05:32 46.2 °F /  7.9 °C 41.3 °F /  5.2 °C 30.50 in /  1032.7 hPa WNW 7.0 mph /  11.3 km/h 11.0 mph /  17.7 km/h 83 % 0.00 in /  0 mm 0 W/m2
05:37 46.2 °F /  7.9 °C 41.3 °F /  5.2 °C 30.49 in /  1032.4 hPa WNW 10.0 mph /  16.1 km/h 14.0 mph /  22.5 km/h 83 % 0.00 in /  0 mm 0 W/m2
05:42 46.2 °F /  7.9 °C 41.3 °F /  5.2 °C 30.49 in /  1032.4 hPa WNW 7.0 mph /  11.3 km/h 10.0 mph /  16.1 km/h 83 % 0.00 in /  0 mm 0 W/m2
05:47 46.2 °F /  7.9 °C 41.3 °F /  5.2 °C 30.50 in /  1032.7 hPa WNW 7.0 mph /  11.3 km/h 10.0 mph /  16.1 km/h 83 % 0.00 in /  0 mm 0 W/m2
05:52 46.2 °F /  7.9 °C 41.3 °F /  5.2 °C 30.50 in /  1032.7 hPa WNW 8.0 mph /  12.9 km/h 13.0 mph /  20.9 km/h 83 % 0.00 in /  0 mm 0 W/m2
05:57 46.2 °F /  7.9 °C 41.7 °F /  5.4 °C 30.50 in /  1032.7 hPa WNW 7.0 mph /  11.3 km/h 14.0 mph /  22.5 km/h 84 % 0.00 in /  0 mm 0 W/m2
06:02 46.2 °F /  7.9 °C 41.7 °F /  5.4 °C 30.50 in /  1032.7 hPa WNW 9.0 mph /  14.5 km/h 18.0 mph /  29 km/h 84 % 0.00 in /  0 mm 0 W/m2
06:07 46.2 °F /  7.9 °C 41.7 °F /  5.4 °C 30.50 in /  1032.7 hPa WNW 8.0 mph /  12.9 km/h 12.0 mph /  19.3 km/h 84 % 0.00 in /  0 mm 0 W/m2
06:12 46.2 °F /  7.9 °C 41.3 °F /  5.2 °C 30.50 in /  1032.7 hPa WNW 8.0 mph /  12.9 km/h 11.0 mph /  17.7 km/h 83 % 0.00 in /  0 mm 0 W/m2
06:17 46.2 °F /  7.9 °C 41.3 °F /  5.2 °C 30.50 in /  1032.7 hPa West 9.0 mph /  14.5 km/h 12.0 mph /  19.3 km/h 83 % 0.00 in /  0 mm 0 W/m2
06:22 46.2 °F /  7.9 °C 41.3 °F /  5.2 °C 30.50 in /  1032.7 hPa West 8.0 mph /  12.9 km/h 11.0 mph /  17.7 km/h 83 % 0.00 in /  0 mm 0 W/m2
06:27 46.2 °F /  7.9 °C 41.3 °F /  5.2 °C 30.50 in /  1032.7 hPa West 9.0 mph /  14.5 km/h 16.0 mph /  25.7 km/h 83 % 0.00 in /  0 mm 0 W/m2
06:32 46.2 °F /  7.9 °C 41.3 °F /  5.2 °C 30.50 in /  1032.7 hPa West 8.0 mph /  12.9 km/h 12.0 mph /  19.3 km/h 83 % 0.00 in /  0 mm 0 W/m2
06:37 46.2 °F /  7.9 °C 41.3 °F /  5.2 °C 30.50 in /  1032.7 hPa WNW 11.0 mph /  17.7 km/h 15.0 mph /  24.1 km/h 83 % 0.00 in /  0 mm 0 W/m2
06:42 46.2 °F /  7.9 °C 41.3 °F /  5.2 °C 30.50 in /  1032.7 hPa WNW 11.0 mph /  17.7 km/h 19.0 mph /  30.6 km/h 83 % 0.00 in /  0 mm 0 W/m2
06:47 46.2 °F /  7.9 °C 41.3 °F /  5.2 °C 30.49 in /  1032.4 hPa WNW 10.0 mph /  16.1 km/h 16.0 mph /  25.7 km/h 83 % 0.00 in /  0 mm 0 W/m2
06:52 46.0 °F /  7.8 °C 41.2 °F /  5.1 °C 30.50 in /  1032.7 hPa WNW 7.0 mph /  11.3 km/h 12.0 mph /  19.3 km/h 83 % 0.00 in /  0 mm 0 W/m2
06:57 46.0 °F /  7.8 °C 41.2 °F /  5.1 °C 30.50 in /  1032.7 hPa West 8.0 mph /  12.9 km/h 13.0 mph /  20.9 km/h 83 % 0.00 in /  0 mm 0 W/m2
07:02 46.0 °F /  7.8 °C 41.2 °F /  5.1 °C 30.50 in /  1032.7 hPa WNW 10.0 mph /  16.1 km/h 20.0 mph /  32.2 km/h 83 % 0.00 in /  0 mm 0 W/m2
07:07 46.0 °F /  7.8 °C 41.2 °F /  5.1 °C 30.50 in /  1032.7 hPa WNW 8.0 mph /  12.9 km/h 13.0 mph /  20.9 km/h 83 % 0.00 in /  0 mm 0 W/m2
07:10 46.0 °F /  7.8 °C 41.2 °F /  5.1 °C 30.50 in /  1032.7 hPa WNW 9.0 mph /  14.5 km/h 14.0 mph /  22.5 km/h 83 % 0.00 in /  0 mm 0 W/m2
07:15 46.0 °F /  7.8 °C 41.2 °F /  5.1 °C 30.50 in /  1032.7 hPa West 8.0 mph /  12.9 km/h 13.0 mph /  20.9 km/h 83 % 0.00 in /  0 mm 0 W/m2
07:20 46.0 °F /  7.8 °C 41.2 °F /  5.1 °C 30.50 in /  1032.7 hPa West 10.0 mph /  16.1 km/h 15.0 mph /  24.1 km/h 83 % 0.00 in /  0 mm 0 W/m2
07:25 46.0 °F /  7.8 °C 41.2 °F /  5.1 °C 30.50 in /  1032.7 hPa West 11.0 mph /  17.7 km/h 20.0 mph /  32.2 km/h 83 % 0.00 in /  0 mm 0 W/m2
07:30 46.0 °F /  7.8 °C 41.2 °F /  5.1 °C 30.50 in /  1032.7 hPa West 11.0 mph /  17.7 km/h 18.0 mph /  29 km/h 83 % 0.00 in /  0 mm 0 W/m2
07:35 46.0 °F /  7.8 °C 41.2 °F /  5.1 °C 30.50 in /  1032.7 hPa West 10.0 mph /  16.1 km/h 16.0 mph /  25.7 km/h 83 % 0.00 in /  0 mm 0 W/m2
07:40 46.0 °F /  7.8 °C 41.2 °F /  5.1 °C 30.50 in /  1032.7 hPa West 11.0 mph /  17.7 km/h 15.0 mph /  24.1 km/h 83 % 0.00 in /  0 mm 0 W/m2
07:41 46.0 °F /  7.8 °C 41.2 °F /  5.1 °C 30.50 in /  1032.7 hPa West 11.0 mph /  17.7 km/h 16.0 mph /  25.7 km/h 83 % 0.00 in /  0 mm 0 W/m2
07:46 46.2 °F /  7.9 °C 41.3 °F /  5.2 °C 30.50 in /  1032.7 hPa West 13.0 mph /  20.9 km/h 20.0 mph /  32.2 km/h 83 % 0.00 in /  0 mm 0 W/m2
07:51 46.0 °F /  7.8 °C 40.9 °F /  4.9 °C 30.50 in /  1032.7 hPa West 14.0 mph /  22.5 km/h 20.0 mph /  32.2 km/h 82 % 0.00 in /  0 mm 0 W/m2
08:01 46.0 °F /  7.8 °C 40.9 °F /  4.9 °C 30.50 in /  1032.7 hPa West 11.0 mph /  17.7 km/h 15.0 mph /  24.1 km/h 82 % 0.00 in /  0 mm 0 W/m2
08:06 46.0 °F /  7.8 °C 40.9 °F /  4.9 °C 30.50 in /  1032.7 hPa West 11.0 mph /  17.7 km/h 16.0 mph /  25.7 km/h 82 % 0.00 in /  0 mm 0 W/m2
08:11 46.0 °F /  7.8 °C 40.5 °F /  4.7 °C 30.50 in /  1032.7 hPa West 15.0 mph /  24.1 km/h 24.0 mph /  38.6 km/h 81 % 0.00 in /  0 mm 0 W/m2
08:16 46.0 °F /  7.8 °C 40.5 °F /  4.7 °C 30.50 in /  1032.7 hPa West 15.0 mph /  24.1 km/h 21.0 mph /  33.8 km/h 81 % 0.00 in /  0 mm 0 W/m2
08:21 46.2 °F /  7.9 °C 40.7 °F /  4.8 °C 30.50 in /  1032.7 hPa West 14.0 mph /  22.5 km/h 23.0 mph /  37 km/h 81 % 0.00 in /  0 mm 7 W/m2
08:31 46.2 °F /  7.9 °C 40.7 °F /  4.8 °C 30.50 in /  1032.7 hPa West 16.0 mph /  25.7 km/h 22.0 mph /  35.4 km/h 81 % 0.00 in /  0 mm 9 W/m2
08:36 46.2 °F /  7.9 °C 41.0 °F /  5 °C 30.50 in /  1032.7 hPa West 11.0 mph /  17.7 km/h 16.0 mph /  25.7 km/h 82 % 0.00 in /  0 mm 9 W/m2
08:41 46.2 °F /  7.9 °C 41.0 °F /  5 °C 30.50 in /  1032.7 hPa West 12.0 mph /  19.3 km/h 18.0 mph /  29 km/h 82 % 0.00 in /  0 mm 11 W/m2
08:46 46.0 °F /  7.8 °C 40.9 °F /  4.9 °C 30.50 in /  1032.7 hPa WNW 17.0 mph /  27.4 km/h 29.0 mph /  46.7 km/h 82 % 0.00 in /  0 mm 11 W/m2
08:48 46.0 °F /  7.8 °C 40.9 °F /  4.9 °C 30.50 in /  1032.7 hPa WNW 17.0 mph /  27.4 km/h 29.0 mph /  46.7 km/h 82 % 0.00 in /  0 mm 11 W/m2
08:53 46.0 °F /  7.8 °C 40.9 °F /  4.9 °C 30.50 in /  1032.7 hPa West 17.0 mph /  27.4 km/h 25.0 mph /  40.2 km/h 82 % 0.00 in /  0 mm 11 W/m2
08:58 46.0 °F /  7.8 °C 40.9 °F /  4.9 °C 30.50 in /  1032.7 hPa West 14.0 mph /  22.5 km/h 21.0 mph /  33.8 km/h 82 % 0.00 in /  0 mm 12 W/m2
09:03 46.0 °F /  7.8 °C 40.9 °F /  4.9 °C 30.50 in /  1032.7 hPa WNW 11.0 mph /  17.7 km/h 20.0 mph /  32.2 km/h 82 % 0.00 in /  0 mm 14 W/m2
09:08 46.0 °F /  7.8 °C 41.2 °F /  5.1 °C 30.49 in /  1032.4 hPa WNW 12.0 mph /  19.3 km/h 22.0 mph /  35.4 km/h 83 % 0.00 in /  0 mm 16 W/m2
09:13 46.0 °F /  7.8 °C 41.2 °F /  5.1 °C 30.49 in /  1032.4 hPa West 13.0 mph /  20.9 km/h 19.0 mph /  30.6 km/h 83 % 0.00 in /  0 mm 14 W/m2
09:18 46.0 °F /  7.8 °C 41.2 °F /  5.1 °C 30.49 in /  1032.4 hPa West 13.0 mph /  20.9 km/h 20.0 mph /  32.2 km/h 83 % 0.00 in /  0 mm 14 W/m2
09:23 46.0 °F /  7.8 °C 41.2 °F /  5.1 °C 30.49 in /  1032.4 hPa West 11.0 mph /  17.7 km/h 19.0 mph /  30.6 km/h 83 % 0.00 in /  0 mm 18 W/m2
09:28 46.0 °F /  7.8 °C 41.2 °F /  5.1 °C 30.49 in /  1032.4 hPa WNW 13.0 mph /  20.9 km/h 20.0 mph /  32.2 km/h 83 % 0.00 in /  0 mm 16 W/m2
09:33 46.0 °F /  7.8 °C 41.2 °F /  5.1 °C 30.50 in /  1032.7 hPa West 15.0 mph /  24.1 km/h 21.0 mph /  33.8 km/h 83 % 0.00 in /  0 mm 23 W/m2
09:38 46.0 °F /  7.8 °C 41.2 °F /  5.1 °C 30.49 in /  1032.4 hPa West 10.0 mph /  16.1 km/h 19.0 mph /  30.6 km/h 83 % 0.00 in /  0 mm 23 W/m2
09:43 46.0 °F /  7.8 °C 41.2 °F /  5.1 °C 30.49 in /  1032.4 hPa West 12.0 mph /  19.3 km/h 21.0 mph /  33.8 km/h 83 % 0.00 in /  0 mm 26 W/m2
09:48 46.0 °F /  7.8 °C 41.2 °F /  5.1 °C 30.49 in /  1032.4 hPa West 12.0 mph /  19.3 km/h 18.0 mph /  29 km/h 83 % 0.00 in /  0 mm 21 W/m2
09:53 46.0 °F /  7.8 °C 41.2 °F /  5.1 °C 30.49 in /  1032.4 hPa West 12.0 mph /  19.3 km/h 19.0 mph /  30.6 km/h 83 % 0.00 in /  0 mm 19 W/m2
09:58 46.0 °F /  7.8 °C 41.2 °F /  5.1 °C 30.49 in /  1032.4 hPa West 9.0 mph /  14.5 km/h 14.0 mph /  22.5 km/h 83 % 0.00 in /  0 mm 16 W/m2
10:03 46.0 °F /  7.8 °C 41.2 °F /  5.1 °C 30.49 in /  1032.4 hPa West 7.0 mph /  11.3 km/h 11.0 mph /  17.7 km/h 83 % 0.00 in /  0 mm 16 W/m2
10:08 46.0 °F /  7.8 °C 41.5 °F /  5.3 °C 30.49 in /  1032.4 hPa West 7.0 mph /  11.3 km/h 14.0 mph /  22.5 km/h 84 % 0.00 in /  0 mm 26 W/m2
10:13 46.0 °F /  7.8 °C 41.5 °F /  5.3 °C 30.49 in /  1032.4 hPa West 13.0 mph /  20.9 km/h 22.0 mph /  35.4 km/h 84 % 0.00 in /  0 mm 30 W/m2
10:18 45.9 °F /  7.7 °C 41.3 °F /  5.2 °C 30.49 in /  1032.4 hPa West 12.0 mph /  19.3 km/h 19.0 mph /  30.6 km/h 84 % 0.00 in /  0 mm 44 W/m2
10:23 46.0 °F /  7.8 °C 41.5 °F /  5.3 °C 30.49 in /  1032.4 hPa West 13.0 mph /  20.9 km/h 18.0 mph /  29 km/h 84 % 0.00 in /  0 mm 53 W/m2
10:28 46.0 °F /  7.8 °C 41.5 °F /  5.3 °C 30.49 in /  1032.4 hPa West 11.0 mph /  17.7 km/h 18.0 mph /  29 km/h 84 % 0.00 in /  0 mm 58 W/m2
10:33 46.0 °F /  7.8 °C 41.2 °F /  5.1 °C 30.49 in /  1032.4 hPa West 10.0 mph /  16.1 km/h 15.0 mph /  24.1 km/h 83 % 0.00 in /  0 mm 70 W/m2
10:38 46.0 °F /  7.8 °C 41.2 °F /  5.1 °C 30.49 in /  1032.4 hPa West 12.0 mph /  19.3 km/h 19.0 mph /  30.6 km/h 83 % 0.00 in /  0 mm 77 W/m2
10:43 46.0 °F /  7.8 °C 41.2 °F /  5.1 °C 30.49 in /  1032.4 hPa West 14.0 mph /  22.5 km/h 21.0 mph /  33.8 km/h 83 % 0.00 in /  0 mm 56 W/m2
10:48 46.0 °F /  7.8 °C 40.9 °F /  4.9 °C 30.49 in /  1032.4 hPa West 11.0 mph /  17.7 km/h 19.0 mph /  30.6 km/h 82 % 0.00 in /  0 mm 51 W/m2
10:53 46.0 °F /  7.8 °C 40.9 °F /  4.9 °C 30.49 in /  1032.4 hPa West 11.0 mph /  17.7 km/h 16.0 mph /  25.7 km/h 82 % 0.00 in /  0 mm 54 W/m2
10:58 46.0 °F /  7.8 °C 40.9 °F /  4.9 °C 30.49 in /  1032.4 hPa West 7.0 mph /  11.3 km/h 11.0 mph /  17.7 km/h 82 % 0.00 in /  0 mm 53 W/m2
11:03 46.2 °F /  7.9 °C 41.0 °F /  5 °C 30.49 in /  1032.4 hPa West 13.0 mph /  20.9 km/h 19.0 mph /  30.6 km/h 82 % 0.00 in /  0 mm 54 W/m2
11:08 46.2 °F /  7.9 °C 40.7 °F /  4.8 °C 30.49 in /  1032.4 hPa West 10.0 mph /  16.1 km/h 16.0 mph /  25.7 km/h 81 % 0.00 in /  0 mm 56 W/m2
11:13 46.2 °F /  7.9 °C 40.7 °F /  4.8 °C 30.49 in /  1032.4 hPa West 11.0 mph /  17.7 km/h 16.0 mph /  25.7 km/h 81 % 0.00 in /  0 mm 62 W/m2
11:23 46.2 °F /  7.9 °C 40.7 °F /  4.8 °C 30.48 in /  1032.1 hPa West 12.0 mph /  19.3 km/h 18.0 mph /  29 km/h 81 % 0.00 in /  0 mm 69 W/m2
11:28 46.4 °F /  8 °C 40.9 °F /  4.9 °C 30.49 in /  1032.4 hPa West 10.0 mph /  16.1 km/h 18.0 mph /  29 km/h 81 % 0.00 in /  0 mm 69 W/m2
11:33 46.4 °F /  8 °C 40.9 °F /  4.9 °C 30.49 in /  1032.4 hPa West 11.0 mph /  17.7 km/h 16.0 mph /  25.7 km/h 81 % 0.00 in /  0 mm 69 W/m2
11:38 46.4 °F /  8 °C 40.6 °F /  4.8 °C 30.49 in /  1032.4 hPa West 13.0 mph /  20.9 km/h 21.0 mph /  33.8 km/h 80 % 0.00 in /  0 mm 63 W/m2
11:43 46.2 °F /  7.9 °C 40.4 °F /  4.7 °C 30.48 in /  1032.1 hPa West 13.0 mph /  20.9 km/h 20.0 mph /  32.2 km/h 80 % 0.00 in /  0 mm 62 W/m2
11:48 46.2 °F /  7.9 °C 40.4 °F /  4.7 °C 30.48 in /  1032.1 hPa West 10.0 mph /  16.1 km/h 14.0 mph /  22.5 km/h 80 % 0.00 in /  0 mm 60 W/m2
11:53 46.2 °F /  7.9 °C 40.4 °F /  4.7 °C 30.48 in /  1032.1 hPa West 6.0 mph /  9.7 km/h 12.0 mph /  19.3 km/h 80 % 0.00 in /  0 mm 62 W/m2
11:58 46.2 °F /  7.9 °C 40.4 °F /  4.7 °C 30.48 in /  1032.1 hPa West 14.0 mph /  22.5 km/h 21.0 mph /  33.8 km/h 80 % 0.00 in /  0 mm 69 W/m2
12:03 46.2 °F /  7.9 °C 40.4 °F /  4.7 °C 30.48 in /  1032.1 hPa West 7.0 mph /  11.3 km/h 11.0 mph /  17.7 km/h 80 % 0.00 in /  0 mm 76 W/m2
12:08 46.2 °F /  7.9 °C 40.4 °F /  4.7 °C 30.48 in /  1032.1 hPa West 8.0 mph /  12.9 km/h 14.0 mph /  22.5 km/h 80 % 0.00 in /  0 mm 72 W/m2
12:13 46.2 °F /  7.9 °C 40.1 °F /  4.5 °C 30.48 in /  1032.1 hPa West 13.0 mph /  20.9 km/h 21.0 mph /  33.8 km/h 79 % 0.00 in /  0 mm 65 W/m2
12:18 46.2 °F /  7.9 °C 40.1 °F /  4.5 °C 30.48 in /  1032.1 hPa WNW 10.0 mph /  16.1 km/h 20.0 mph /  32.2 km/h 79 % 0.00 in /  0 mm 88 W/m2
12:23 46.6 °F /  8.1 °C 40.4 °F /  4.7 °C 30.48 in /  1032.1 hPa West 11.0 mph /  17.7 km/h 16.0 mph /  25.7 km/h 79 % 0.00 in /  0 mm 100 W/m2
12:28 46.6 °F /  8.1 °C 40.1 °F /  4.5 °C 30.48 in /  1032.1 hPa West 13.0 mph /  20.9 km/h 23.0 mph /  37 km/h 78 % 0.00 in /  0 mm 97 W/m2
12:34 46.4 °F /  8 °C 39.6 °F /  4.2 °C 30.47 in /  1031.7 hPa West 16.0 mph /  25.7 km/h 26.0 mph /  41.8 km/h 77 % 0.00 in /  0 mm 72 W/m2
12:39 46.2 °F /  7.9 °C 39.7 °F /  4.3 °C 30.47 in /  1031.7 hPa West 13.0 mph /  20.9 km/h 20.0 mph /  32.2 km/h 78 % 0.00 in /  0 mm 70 W/m2
12:44 46.2 °F /  7.9 °C 39.7 °F /  4.3 °C 30.47 in /  1031.7 hPa West 10.0 mph /  16.1 km/h 16.0 mph /  25.7 km/h 78 % 0.00 in /  0 mm 62 W/m2
12:49 46.0 °F /  7.8 °C 39.6 °F /  4.2 °C 30.47 in /  1031.7 hPa West 15.0 mph /  24.1 km/h 25.0 mph /  40.2 km/h 78 % 0.00 in /  0 mm 74 W/m2
12:54 46.0 °F /  7.8 °C 39.6 °F /  4.2 °C 30.47 in /  1031.7 hPa West 12.0 mph /  19.3 km/h 21.0 mph /  33.8 km/h 78 % 0.00 in /  0 mm 91 W/m2
12:59 46.0 °F /  7.8 °C 39.6 °F /  4.2 °C 30.47 in /  1031.7 hPa West 12.0 mph /  19.3 km/h 20.0 mph /  32.2 km/h 78 % 0.00 in /  0 mm 81 W/m2
13:04 46.0 °F /  7.8 °C 39.2 °F /  4 °C 30.47 in /  1031.7 hPa West 9.0 mph /  14.5 km/h 21.0 mph /  33.8 km/h 77 % 0.00 in /  0 mm 83 W/m2
13:09 46.0 °F /  7.8 °C 39.2 °F /  4 °C 30.47 in /  1031.7 hPa West 11.0 mph /  17.7 km/h 21.0 mph /  33.8 km/h 77 % 0.00 in /  0 mm 83 W/m2
13:14 46.0 °F /  7.8 °C 39.2 °F /  4 °C 30.47 in /  1031.7 hPa West 7.0 mph /  11.3 km/h 19.0 mph /  30.6 km/h 77 % 0.00 in /  0 mm 72 W/m2
13:19 46.2 °F /  7.9 °C 39.4 °F /  4.1 °C 30.47 in /  1031.7 hPa West 10.0 mph /  16.1 km/h 19.0 mph /  30.6 km/h 77 % 0.00 in /  0 mm 70 W/m2
13:24 46.2 °F /  7.9 °C 39.7 °F /  4.3 °C 30.47 in /  1031.7 hPa West 8.0 mph /  12.9 km/h 14.0 mph /  22.5 km/h 78 % 0.00 in /  0 mm 63 W/m2
13:29 46.2 °F /  7.9 °C 39.7 °F /  4.3 °C 30.47 in /  1031.7 hPa West 11.0 mph /  17.7 km/h 18.0 mph /  29 km/h 78 % 0.00 in /  0 mm 65 W/m2
13:34 46.0 °F /  7.8 °C 39.6 °F /  4.2 °C 30.47 in /  1031.7 hPa West 8.0 mph /  12.9 km/h 13.0 mph /  20.9 km/h 78 % 0.00 in /  0 mm 63 W/m2
13:39 46.0 °F /  7.8 °C 39.6 °F /  4.2 °C 30.47 in /  1031.7 hPa West 10.0 mph /  16.1 km/h 20.0 mph /  32.2 km/h 78 % 0.00 in /  0 mm 63 W/m2
13:44 46.0 °F /  7.8 °C 39.6 °F /  4.2 °C 30.46 in /  1031.4 hPa West 9.0 mph /  14.5 km/h 14.0 mph /  22.5 km/h 78 % 0.00 in /  0 mm 62 W/m2
13:49 46.0 °F /  7.8 °C 39.6 °F /  4.2 °C 30.46 in /  1031.4 hPa West 10.0 mph /  16.1 km/h 20.0 mph /  32.2 km/h 78 % 0.00 in /  0 mm 56 W/m2
13:54 46.0 °F /  7.8 °C 39.6 °F /  4.2 °C 30.46 in /  1031.4 hPa WSW 7.0 mph /  11.3 km/h 12.0 mph /  19.3 km/h 78 % 0.00 in /  0 mm 51 W/m2
13:59 46.0 °F /  7.8 °C 39.6 °F /  4.2 °C 30.46 in /  1031.4 hPa West 9.0 mph /  14.5 km/h 16.0 mph /  25.7 km/h 78 % 0.00 in /  0 mm 44 W/m2
14:04 46.0 °F /  7.8 °C 39.6 °F /  4.2 °C 30.46 in /  1031.4 hPa West 9.0 mph /  14.5 km/h 14.0 mph /  22.5 km/h 78 % 0.00 in /  0 mm 42 W/m2
14:09 46.0 °F /  7.8 °C 39.6 °F /  4.2 °C 30.46 in /  1031.4 hPa West 8.0 mph /  12.9 km/h 13.0 mph /  20.9 km/h 78 % 0.00 in /  0 mm 39 W/m2
14:14 46.0 °F /  7.8 °C 39.6 °F /  4.2 °C 30.46 in /  1031.4 hPa West 11.0 mph /  17.7 km/h 18.0 mph /  29 km/h 78 % 0.00 in /  0 mm 40 W/m2
14:19 46.0 °F /  7.8 °C 39.9 °F /  4.4 °C 30.46 in /  1031.4 hPa West 6.0 mph /  9.7 km/h 11.0 mph /  17.7 km/h 79 % 0.00 in /  0 mm 37 W/m2
14:24 46.0 °F /  7.8 °C 39.9 °F /  4.4 °C 30.46 in /  1031.4 hPa WNW 8.0 mph /  12.9 km/h 15.0 mph /  24.1 km/h 79 % 0.00 in /  0 mm 42 W/m2
14:29 46.0 °F /  7.8 °C 39.9 °F /  4.4 °C 30.46 in /  1031.4 hPa West 4.0 mph /  6.4 km/h 10.0 mph /  16.1 km/h 79 % 0.00 in /  0 mm 58 W/m2
14:34 46.0 °F /  7.8 °C 39.9 °F /  4.4 °C 30.46 in /  1031.4 hPa WSW 6.0 mph /  9.7 km/h 11.0 mph /  17.7 km/h 79 % 0.00 in /  0 mm 47 W/m2
14:39 46.0 °F /  7.8 °C 39.6 °F /  4.2 °C 30.46 in /  1031.4 hPa WNW 10.0 mph /  16.1 km/h 15.0 mph /  24.1 km/h 78 % 0.00 in /  0 mm 47 W/m2
14:44 45.9 °F /  7.7 °C 39.4 °F /  4.1 °C 30.46 in /  1031.4 hPa West 9.0 mph /  14.5 km/h 15.0 mph /  24.1 km/h 78 % 0.00 in /  0 mm 49 W/m2
14:49 45.9 °F /  7.7 °C 39.4 °F /  4.1 °C 30.46 in /  1031.4 hPa WNW 11.0 mph /  17.7 km/h 18.0 mph /  29 km/h 78 % 0.00 in /  0 mm 63 W/m2
14:54 45.9 °F /  7.7 °C 39.4 °F /  4.1 °C 30.46 in /  1031.4 hPa WNW 10.0 mph /  16.1 km/h 20.0 mph /  32.2 km/h 78 % 0.00 in /  0 mm 56 W/m2
14:59 45.9 °F /  7.7 °C 39.4 °F /  4.1 °C 30.45 in /  1031 hPa West 8.0 mph /  12.9 km/h 16.0 mph /  25.7 km/h 78 % 0.00 in /  0 mm 56 W/m2
15:04 45.9 °F /  7.7 °C 39.4 °F /  4.1 °C 30.45 in /  1031 hPa WNW 7.0 mph /  11.3 km/h 12.0 mph /  19.3 km/h 78 % 0.00 in /  0 mm 51 W/m2
15:09 45.7 °F /  7.6 °C 39.2 °F /  4 °C 30.45 in /  1031 hPa West 10.0 mph /  16.1 km/h 15.0 mph /  24.1 km/h 78 % 0.00 in /  0 mm 42 W/m2
15:14 45.7 °F /  7.6 °C 39.2 °F /  4 °C 30.45 in /  1031 hPa West 5.0 mph /  8 km/h 11.0 mph /  17.7 km/h 78 % 0.00 in /  0 mm 23 W/m2
15:19 45.7 °F /  7.6 °C 39.2 °F /  4 °C 30.45 in /  1031 hPa WNW 11.0 mph /  17.7 km/h 18.0 mph /  29 km/h 78 % 0.00 in /  0 mm 18 W/m2
15:24 45.7 °F /  7.6 °C 39.5 °F /  4.2 °C 30.45 in /  1031 hPa West 10.0 mph /  16.1 km/h 14.0 mph /  22.5 km/h 79 % 0.00 in /  0 mm 9 W/m2
15:29 45.7 °F /  7.6 °C 39.5 °F /  4.2 °C 30.45 in /  1031 hPa West 4.0 mph /  6.4 km/h 9.0 mph /  14.5 km/h 79 % 0.00 in /  0 mm 7 W/m2
15:34 45.7 °F /  7.6 °C 39.5 °F /  4.2 °C 30.45 in /  1031 hPa WNW 6.0 mph /  9.7 km/h 11.0 mph /  17.7 km/h 79 % 0.00 in /  0 mm 5 W/m2
15:39 45.7 °F /  7.6 °C 39.9 °F /  4.4 °C 30.46 in /  1031.4 hPa West 7.0 mph /  11.3 km/h 13.0 mph /  20.9 km/h 80 % 0.00 in /  0 mm 5 W/m2
15:44 45.5 °F /  7.5 °C 39.7 °F /  4.3 °C 30.46 in /  1031.4 hPa West 7.0 mph /  11.3 km/h 15.0 mph /  24.1 km/h 80 % 0.00 in /  0 mm 0 W/m2
15:49 45.5 °F /  7.5 °C 39.7 °F /  4.3 °C 30.46 in /  1031.4 hPa WNW 8.0 mph /  12.9 km/h 11.0 mph /  17.7 km/h 80 % 0.00 in /  0 mm 0 W/m2
15:54 45.3 °F /  7.4 °C 39.5 °F /  4.2 °C 30.46 in /  1031.4 hPa WNW 8.0 mph /  12.9 km/h 14.0 mph /  22.5 km/h 80 % 0.00 in /  0 mm 0 W/m2
15:59 45.3 °F /  7.4 °C 39.2 °F /  4 °C 30.46 in /  1031.4 hPa WNW 9.0 mph /  14.5 km/h 15.0 mph /  24.1 km/h 79 % 0.00 in /  0 mm 0 W/m2
16:04 45.1 °F /  7.3 °C 39.0 °F /  3.9 °C 30.46 in /  1031.4 hPa West 10.0 mph /  16.1 km/h 19.0 mph /  30.6 km/h 79 % 0.00 in /  0 mm 0 W/m2
16:09 45.0 °F /  7.2 °C 38.8 °F /  3.8 °C 30.46 in /  1031.4 hPa West 12.0 mph /  19.3 km/h 19.0 mph /  30.6 km/h 79 % 0.00 in /  0 mm 0 W/m2
16:15 44.8 °F /  7.1 °C 38.7 °F /  3.7 °C 30.46 in /  1031.4 hPa West 9.0 mph /  14.5 km/h 15.0 mph /  24.1 km/h 79 % 0.00 in /  0 mm 0 W/m2
16:20 44.8 °F /  7.1 °C 38.7 °F /  3.7 °C 30.45 in /  1031 hPa West 10.0 mph /  16.1 km/h 16.0 mph /  25.7 km/h 79 % 0.00 in /  0 mm 0 W/m2
16:25 44.8 °F /  7.1 °C 39.0 °F /  3.9 °C 30.45 in /  1031 hPa West 8.0 mph /  12.9 km/h 12.0 mph /  19.3 km/h 80 % 0.00 in /  0 mm 0 W/m2
16:30 44.6 °F /  7 °C 38.8 °F /  3.8 °C 30.45 in /  1031 hPa West 6.0 mph /  9.7 km/h 11.0 mph /  17.7 km/h 80 % 0.00 in /  0 mm 0 W/m2
16:35 44.6 °F /  7 °C 38.8 °F /  3.8 °C 30.45 in /  1031 hPa West 5.0 mph /  8 km/h 9.0 mph /  14.5 km/h 80 % 0.00 in /  0 mm 0 W/m2
16:40 44.6 °F /  7 °C 38.8 °F /  3.8 °C 30.45 in /  1031 hPa West 8.0 mph /  12.9 km/h 12.0 mph /  19.3 km/h 80 % 0.00 in /  0 mm 0 W/m2
16:45 44.6 °F /  7 °C 38.8 °F /  3.8 °C 30.45 in /  1031 hPa West 5.0 mph /  8 km/h 9.0 mph /  14.5 km/h 80 % 0.00 in /  0 mm 0 W/m2
16:50 44.6 °F /  7 °C 38.8 °F /  3.8 °C 30.45 in /  1031 hPa West 6.0 mph /  9.7 km/h 10.0 mph /  16.1 km/h 80 % 0.00 in /  0 mm 0 W/m2
16:55 44.6 °F /  7 °C 38.8 °F /  3.8 °C 30.45 in /  1031 hPa WSW 6.0 mph /  9.7 km/h 13.0 mph /  20.9 km/h 80 % 0.00 in /  0 mm 0 W/m2
17:00 44.6 °F /  7 °C 39.1 °F /  3.9 °C 30.45 in /  1031 hPa WSW 5.0 mph /  8 km/h 9.0 mph /  14.5 km/h 81 % 0.00 in /  0 mm 0 W/m2
17:01 44.6 °F /  7 °C 39.1 °F /  3.9 °C 30.45 in /  1031 hPa WSW 6.0 mph /  9.7 km/h 11.0 mph /  17.7 km/h 81 % 0.00 in /  0 mm 0 W/m2
17:06 44.6 °F /  7 °C 38.8 °F /  3.8 °C 30.45 in /  1031 hPa West 8.0 mph /  12.9 km/h 14.0 mph /  22.5 km/h 80 % 0.00 in /  0 mm 0 W/m2
17:11 44.6 °F /  7 °C 39.1 °F /  3.9 °C 30.45 in /  1031 hPa West 9.0 mph /  14.5 km/h 16.0 mph /  25.7 km/h 81 % 0.00 in /  0 mm 0 W/m2
17:16 44.6 °F /  7 °C 39.1 °F /  3.9 °C 30.45 in /  1031 hPa West 7.0 mph /  11.3 km/h 16.0 mph /  25.7 km/h 81 % 0.00 in /  0 mm 0 W/m2
17:21 44.6 °F /  7 °C 39.1 °F /  3.9 °C 30.45 in /  1031 hPa West 6.0 mph /  9.7 km/h 13.0 mph /  20.9 km/h 81 % 0.00 in /  0 mm 0 W/m2
17:26 44.6 °F /  7 °C 39.1 °F /  3.9 °C 30.45 in /  1031 hPa West 6.0 mph /  9.7 km/h 10.0 mph /  16.1 km/h 81 % 0.00 in /  0 mm 0 W/m2
17:31 44.6 °F /  7 °C 39.1 °F /  3.9 °C 30.44 in /  1030.7 hPa West 7.0 mph /  11.3 km/h 12.0 mph /  19.3 km/h 81 % 0.00 in /  0 mm 0 W/m2
17:36 44.6 °F /  7 °C 39.1 °F /  3.9 °C 30.44 in /  1030.7 hPa WSW 9.0 mph /  14.5 km/h 14.0 mph /  22.5 km/h 81 % 0.00 in /  0 mm 0 W/m2
17:41 44.8 °F /  7.1 °C 39.3 °F /  4.1 °C 30.44 in /  1030.7 hPa WSW 10.0 mph /  16.1 km/h 16.0 mph /  25.7 km/h 81 % 0.00 in /  0 mm 0 W/m2
17:46 44.8 °F /  7.1 °C 39.3 °F /  4.1 °C 30.44 in /  1030.7 hPa West 11.0 mph /  17.7 km/h 18.0 mph /  29 km/h 81 % 0.00 in /  0 mm 0 W/m2
17:51 44.8 °F /  7.1 °C 39.3 °F /  4.1 °C 30.43 in /  1030.4 hPa West 10.0 mph /  16.1 km/h 14.0 mph /  22.5 km/h 81 % 0.00 in /  0 mm 0 W/m2
17:56 44.8 °F /  7.1 °C 39.3 °F /  4.1 °C 30.43 in /  1030.4 hPa West 10.0 mph /  16.1 km/h 18.0 mph /  29 km/h 81 % 0.00 in /  0 mm 0 W/m2
18:01 44.8 °F /  7.1 °C 39.3 °F /  4.1 °C 30.43 in /  1030.4 hPa West 9.0 mph /  14.5 km/h 15.0 mph /  24.1 km/h 81 % 0.00 in /  0 mm 0 W/m2
18:06 44.8 °F /  7.1 °C 39.6 °F /  4.2 °C 30.43 in /  1030.4 hPa West 9.0 mph /  14.5 km/h 16.0 mph /  25.7 km/h 82 % 0.00 in /  0 mm 0 W/m2
18:11 44.8 °F /  7.1 °C 39.6 °F /  4.2 °C 30.43 in /  1030.4 hPa West 9.0 mph /  14.5 km/h 15.0 mph /  24.1 km/h 82 % 0.00 in /  0 mm 0 W/m2
18:16 44.6 °F /  7 °C 39.4 °F /  4.1 °C 30.43 in /  1030.4 hPa West 8.0 mph /  12.9 km/h 12.0 mph /  19.3 km/h 82 % 0.00 in /  0 mm 0 W/m2
18:21 44.6 °F /  7 °C 39.8 °F /  4.3 °C 30.43 in /  1030.4 hPa West 9.0 mph /  14.5 km/h 13.0 mph /  20.9 km/h 83 % 0.00 in /  0 mm 0 W/m2
18:26 44.6 °F /  7 °C 39.8 °F /  4.3 °C 30.42 in /  1030 hPa West 9.0 mph /  14.5 km/h 14.0 mph /  22.5 km/h 83 % 0.00 in /  0 mm 0 W/m2
18:31 44.6 °F /  7 °C 39.8 °F /  4.3 °C 30.42 in /  1030 hPa West 9.0 mph /  14.5 km/h 15.0 mph /  24.1 km/h 83 % 0.00 in /  0 mm 0 W/m2
18:36 44.6 °F /  7 °C 39.8 °F /  4.3 °C 30.42 in /  1030 hPa West 9.0 mph /  14.5 km/h 14.0 mph /  22.5 km/h 83 % 0.00 in /  0 mm 0 W/m2
18:41 44.8 °F /  7.1 °C 39.9 °F /  4.4 °C 30.42 in /  1030 hPa West 10.0 mph /  16.1 km/h 15.0 mph /  24.1 km/h 83 % 0.00 in /  0 mm 0 W/m2
18:46 44.8 °F /  7.1 °C 39.9 °F /  4.4 °C 30.42 in /  1030 hPa West 10.0 mph /  16.1 km/h 15.0 mph /  24.1 km/h 83 % 0.00 in /  0 mm 0 W/m2
18:51 44.8 °F /  7.1 °C 39.9 °F /  4.4 °C 30.42 in /  1030 hPa West 11.0 mph /  17.7 km/h 19.0 mph /  30.6 km/h 83 % 0.00 in /  0 mm 0 W/m2
18:56 44.8 °F /  7.1 °C 39.9 °F /  4.4 °C 30.42 in /  1030 hPa West 10.0 mph /  16.1 km/h 14.0 mph /  22.5 km/h 83 % 0.00 in /  0 mm 0 W/m2
19:01 44.8 °F /  7.1 °C 39.6 °F /  4.2 °C 30.42 in /  1030 hPa West 9.0 mph /  14.5 km/h 14.0 mph /  22.5 km/h 82 % 0.00 in /  0 mm 0 W/m2
19:07 44.8 °F /  7.1 °C 39.6 °F /  4.2 °C 30.42 in /  1030 hPa West 12.0 mph /  19.3 km/h 20.0 mph /  32.2 km/h 82 % 0.00 in /  0 mm 0 W/m2
19:12 45.0 °F /  7.2 °C 39.8 °F /  4.3 °C 30.42 in /  1030 hPa West 10.0 mph /  16.1 km/h 16.0 mph /  25.7 km/h 82 % 0.00 in /  0 mm 0 W/m2
19:17 45.0 °F /  7.2 °C 39.8 °F /  4.3 °C 30.42 in /  1030 hPa West 8.0 mph /  12.9 km/h 13.0 mph /  20.9 km/h 82 % 0.00 in /  0 mm 0 W/m2
19:22 44.8 °F /  7.1 °C 39.6 °F /  4.2 °C 30.42 in /  1030 hPa West 7.0 mph /  11.3 km/h 13.0 mph /  20.9 km/h 82 % 0.00 in /  0 mm 0 W/m2
19:27 44.8 °F /  7.1 °C 39.6 °F /  4.2 °C 30.42 in /  1030 hPa West 10.0 mph /  16.1 km/h 14.0 mph /  22.5 km/h 82 % 0.00 in /  0 mm 0 W/m2
19:32 44.8 °F /  7.1 °C 39.6 °F /  4.2 °C 30.42 in /  1030 hPa West 10.0 mph /  16.1 km/h 16.0 mph /  25.7 km/h 82 % 0.00 in /  0 mm 0 W/m2
19:37 44.8 °F /  7.1 °C 39.6 °F /  4.2 °C 30.42 in /  1030 hPa West 10.0 mph /  16.1 km/h 16.0 mph /  25.7 km/h 82 % 0.00 in /  0 mm 0 W/m2
19:42 45.0 °F /  7.2 °C 39.8 °F /  4.3 °C 30.42 in /  1030 hPa West 12.0 mph /  19.3 km/h 19.0 mph /  30.6 km/h 82 % 0.00 in /  0 mm 0 W/m2
19:47 44.8 °F /  7.1 °C 39.6 °F /  4.2 °C 30.42 in /  1030 hPa West 11.0 mph /  17.7 km/h 16.0 mph /  25.7 km/h 82 % 0.00 in /  0 mm 0 W/m2
19:52 44.8 °F /  7.1 °C 39.6 °F /  4.2 °C 30.42 in /  1030 hPa West 13.0 mph /  20.9 km/h 18.0 mph /  29 km/h 82 % 0.00 in /  0 mm 0 W/m2
19:57 45.0 °F /  7.2 °C 39.8 °F /  4.3 °C 30.42 in /  1030 hPa West 11.0 mph /  17.7 km/h 18.0 mph /  29 km/h 82 % 0.00 in /  0 mm 0 W/m2
20:02 45.1 °F /  7.3 °C 40.0 °F /  4.4 °C 30.42 in /  1030 hPa West 13.0 mph /  20.9 km/h 21.0 mph /  33.8 km/h 82 % 0.00 in /  0 mm 0 W/m2
20:07 45.3 °F /  7.4 °C 39.8 °F /  4.3 °C 30.41 in /  1029.7 hPa WSW 12.0 mph /  19.3 km/h 18.0 mph /  29 km/h 81 % 0.00 in /  0 mm 0 W/m2
20:12 45.5 °F /  7.5 °C 40.0 °F /  4.4 °C 30.41 in /  1029.7 hPa WSW 12.0 mph /  19.3 km/h 18.0 mph /  29 km/h 81 % 0.00 in /  0 mm 0 W/m2
20:17 45.7 °F /  7.6 °C 40.2 °F /  4.6 °C 30.41 in /  1029.7 hPa West 10.0 mph /  16.1 km/h 18.0 mph /  29 km/h 81 % 0.00 in /  0 mm 0 W/m2
20:22 45.7 °F /  7.6 °C 40.2 °F /  4.6 °C 30.40 in /  1029.3 hPa West 10.0 mph /  16.1 km/h 15.0 mph /  24.1 km/h 81 % 0.00 in /  0 mm 0 W/m2
20:27 45.7 °F /  7.6 °C 39.9 °F /  4.4 °C 30.40 in /  1029.3 hPa West 12.0 mph /  19.3 km/h 19.0 mph /  30.6 km/h 80 % 0.00 in /  0 mm 0 W/m2
20:32 45.9 °F /  7.7 °C 40.0 °F /  4.4 °C 30.41 in /  1029.7 hPa West 9.0 mph /  14.5 km/h 14.0 mph /  22.5 km/h 80 % 0.00 in /  0 mm 0 W/m2
20:37 45.9 °F /  7.7 °C 40.0 °F /  4.4 °C 30.41 in /  1029.7 hPa West 9.0 mph /  14.5 km/h 14.0 mph /  22.5 km/h 80 % 0.00 in /  0 mm 0 W/m2
20:42 45.9 °F /  7.7 °C 40.0 °F /  4.4 °C 30.41 in /  1029.7 hPa West 14.0 mph /  22.5 km/h 23.0 mph /  37 km/h 80 % 0.00 in /  0 mm 0 W/m2
20:47 45.9 °F /  7.7 °C 40.0 °F /  4.4 °C 30.41 in /  1029.7 hPa WSW 10.0 mph /  16.1 km/h 14.0 mph /  22.5 km/h 80 % 0.00 in /  0 mm 0 W/m2
20:52 46.0 °F /  7.8 °C 40.2 °F /  4.6 °C 30.41 in /  1029.7 hPa West 8.0 mph /  12.9 km/h 12.0 mph /  19.3 km/h 80 % 0.00 in /  0 mm 0 W/m2
20:57 45.9 °F /  7.7 °C 40.0 °F /  4.4 °C 30.41 in /  1029.7 hPa West 8.0 mph /  12.9 km/h 12.0 mph /  19.3 km/h 80 % 0.00 in /  0 mm 0 W/m2
21:02 46.0 °F /  7.8 °C 40.2 °F /  4.6 °C 30.41 in /  1029.7 hPa SW 12.0 mph /  19.3 km/h 21.0 mph /  33.8 km/h 80 % 0.00 in /  0 mm 0 W/m2
21:07 46.2 °F /  7.9 °C 40.4 °F /  4.7 °C 30.40 in /  1029.3 hPa West 9.0 mph /  14.5 km/h 15.0 mph /  24.1 km/h 80 % 0.00 in /  0 mm 0 W/m2
21:12 46.2 °F /  7.9 °C 40.4 °F /  4.7 °C 30.40 in /  1029.3 hPa WSW 10.0 mph /  16.1 km/h 15.0 mph /  24.1 km/h 80 % 0.00 in /  0 mm 0 W/m2
21:17 46.2 °F /  7.9 °C 40.4 °F /  4.7 °C 30.41 in /  1029.7 hPa WSW 9.0 mph /  14.5 km/h 13.0 mph /  20.9 km/h 80 % 0.00 in /  0 mm 0 W/m2
21:22 46.4 °F /  8 °C 40.6 °F /  4.8 °C 30.41 in /  1029.7 hPa West 8.0 mph /  12.9 km/h 12.0 mph /  19.3 km/h 80 % 0.00 in /  0 mm 0 W/m2
21:27 46.6 °F /  8.1 °C 40.7 °F /  4.8 °C 30.41 in /  1029.7 hPa West 10.0 mph /  16.1 km/h 14.0 mph /  22.5 km/h 80 % 0.00 in /  0 mm 0 W/m2
21:32 46.6 °F /  8.1 °C 40.7 °F /  4.8 °C 30.40 in /  1029.3 hPa WSW 9.0 mph /  14.5 km/h 15.0 mph /  24.1 km/h 80 % 0.00 in /  0 mm 0 W/m2
21:37 46.8 °F /  8.2 °C 40.6 °F /  4.8 °C 30.40 in /  1029.3 hPa West 9.0 mph /  14.5 km/h 13.0 mph /  20.9 km/h 79 % 0.00 in /  0 mm 0 W/m2
21:42 46.9 °F /  8.3 °C 40.8 °F /  4.9 °C 30.40 in /  1029.3 hPa WSW 9.0 mph /  14.5 km/h 13.0 mph /  20.9 km/h 79 % 0.00 in /  0 mm 0 W/m2
21:47 46.9 °F /  8.3 °C 40.8 °F /  4.9 °C 30.40 in /  1029.3 hPa West 10.0 mph /  16.1 km/h 15.0 mph /  24.1 km/h 79 % 0.00 in /  0 mm 0 W/m2
21:52 47.1 °F /  8.4 °C 40.9 °F /  4.9 °C 30.40 in /  1029.3 hPa West 6.0 mph /  9.7 km/h 11.0 mph /  17.7 km/h 79 % 0.00 in /  0 mm 0 W/m2
21:57 47.1 °F /  8.4 °C 40.9 °F /  4.9 °C 30.39 in /  1029 hPa WSW 7.0 mph /  11.3 km/h 10.0 mph /  16.1 km/h 79 % 0.00 in /  0 mm 0 W/m2
22:07 47.1 °F /  8.4 °C 40.9 °F /  4.9 °C 30.39 in /  1029 hPa West 8.0 mph /  12.9 km/h 13.0 mph /  20.9 km/h 79 % 0.00 in /  0 mm 0 W/m2
22:12 47.1 °F /  8.4 °C 40.9 °F /  4.9 °C 30.39 in /  1029 hPa WSW 7.0 mph /  11.3 km/h 12.0 mph /  19.3 km/h 79 % 0.00 in /  0 mm 0 W/m2
22:17 47.1 °F /  8.4 °C 40.9 °F /  4.9 °C 30.39 in /  1029 hPa West 8.0 mph /  12.9 km/h 13.0 mph /  20.9 km/h 79 % 0.00 in /  0 mm 0 W/m2
22:22 47.1 °F /  8.4 °C 41.3 °F /  5.2 °C 30.39 in /  1029 hPa West 9.0 mph /  14.5 km/h 14.0 mph /  22.5 km/h 80 % 0.00 in /  0 mm 0 W/m2
22:27 47.1 °F /  8.4 °C 41.3 °F /  5.2 °C 30.39 in /  1029 hPa WSW 11.0 mph /  17.7 km/h 22.0 mph /  35.4 km/h 80 % 0.00 in /  0 mm 0 W/m2
22:32 47.1 °F /  8.4 °C 41.6 °F /  5.3 °C 30.39 in /  1029 hPa West 8.0 mph /  12.9 km/h 14.0 mph /  22.5 km/h 81 % 0.00 in /  0 mm 0 W/m2
22:37 47.1 °F /  8.4 °C 41.9 °F /  5.5 °C 30.39 in /  1029 hPa West 8.0 mph /  12.9 km/h 14.0 mph /  22.5 km/h 82 % 0.00 in /  0 mm 0 W/m2
22:42 46.9 °F /  8.3 °C 41.7 °F /  5.4 °C 30.39 in /  1029 hPa West 4.0 mph /  6.4 km/h 9.0 mph /  14.5 km/h 82 % 0.00 in /  0 mm 0 W/m2
22:47 46.9 °F /  8.3 °C 41.7 °F /  5.4 °C 30.39 in /  1029 hPa West 6.0 mph /  9.7 km/h 14.0 mph /  22.5 km/h 82 % 0.00 in /  0 mm 0 W/m2
22:52 46.8 °F /  8.2 °C 41.9 °F /  5.5 °C 30.38 in /  1028.7 hPa WSW 3.0 mph /  4.8 km/h 8.0 mph /  12.9 km/h 83 % 0.00 in /  0 mm 0 W/m2
22:57 46.8 °F /  8.2 °C 41.9 °F /  5.5 °C 30.38 in /  1028.7 hPa SW 3.0 mph /  4.8 km/h 7.0 mph /  11.3 km/h 83 % 0.00 in /  0 mm 0 W/m2
23:02 46.6 °F /  8.1 °C 41.7 °F /  5.4 °C 30.38 in /  1028.7 hPa West 5.0 mph /  8 km/h 13.0 mph /  20.9 km/h 83 % 0.00 in /  0 mm 0 W/m2
23:07 46.6 °F /  8.1 °C 41.7 °F /  5.4 °C 30.38 in /  1028.7 hPa WSW 6.0 mph /  9.7 km/h 12.0 mph /  19.3 km/h 83 % 0.00 in /  0 mm 0 W/m2
23:13 46.6 °F /  8.1 °C 41.7 °F /  5.4 °C 30.38 in /  1028.7 hPa SW 6.0 mph /  9.7 km/h 9.0 mph /  14.5 km/h 83 % 0.00 in /  0 mm 0 W/m2
23:18 46.6 °F /  8.1 °C 41.7 °F /  5.4 °C 30.38 in /  1028.7 hPa SW 8.0 mph /  12.9 km/h 15.0 mph /  24.1 km/h 83 % 0.00 in /  0 mm 0 W/m2
23:23 46.6 °F /  8.1 °C 41.7 °F /  5.4 °C 30.38 in /  1028.7 hPa WSW 6.0 mph /  9.7 km/h 10.0 mph /  16.1 km/h 83 % 0.00 in /  0 mm 0 W/m2
23:28 46.8 °F /  8.2 °C 41.9 °F /  5.5 °C 30.38 in /  1028.7 hPa WSW 7.0 mph /  11.3 km/h 11.0 mph /  17.7 km/h 83 % 0.00 in /  0 mm 0 W/m2
23:33 46.8 °F /  8.2 °C 41.9 °F /  5.5 °C 30.38 in /  1028.7 hPa WSW 7.0 mph /  11.3 km/h 12.0 mph /  19.3 km/h 83 % 0.00 in /  0 mm 0 W/m2
23:38 46.8 °F /  8.2 °C 41.9 °F /  5.5 °C 30.38 in /  1028.7 hPa West 6.0 mph /  9.7 km/h 14.0 mph /  22.5 km/h 83 % 0.00 in /  0 mm 0 W/m2
23:43 46.8 °F /  8.2 °C 41.9 °F /  5.5 °C 30.38 in /  1028.7 hPa West 7.0 mph /  11.3 km/h 13.0 mph /  20.9 km/h 83 % 0.00 in /  0 mm 0 W/m2
23:48 46.8 °F /  8.2 °C 41.9 °F /  5.5 °C 30.37 in /  1028.3 hPa West 8.0 mph /  12.9 km/h 11.0 mph /  17.7 km/h 83 % 0.00 in /  0 mm 0 W/m2
23:53 46.6 °F /  8.1 °C 41.7 °F /  5.4 °C 30.37 in /  1028.3 hPa West 9.0 mph /  14.5 km/h 15.0 mph /  24.1 km/h 83 % 0.00 in /  0 mm 0 W/m2
23:58 46.6 °F /  8.1 °C 41.7 °F /  5.4 °C 30.37 in /  1028.3 hPa WSW 7.0 mph /  11.3 km/h 14.0 mph /  22.5 km/h 83 % 0.00 in /  0 mm 0 W/m2
Delerius-Weather
Compliments of Weather Underground - 2.25 mb

Data updates at regular intervals.